createdAt,value
2018-11-25T00:02:04.806Z,5.82
2018-11-25T00:04:32.239Z,5.73
2018-11-25T00:06:59.658Z,5.72
2018-11-25T00:09:27.079Z,5.72
2018-11-25T00:11:54.506Z,5.76
2018-11-25T00:14:21.939Z,5.67
2018-11-25T00:16:49.374Z,5.75
2018-11-25T00:19:16.801Z,5.91
2018-11-25T00:21:44.227Z,5.82
2018-11-25T00:24:11.663Z,5.77
2018-11-25T00:26:39.077Z,5.65
2018-11-25T00:29:06.510Z,5.78
2018-11-25T00:31:33.947Z,5.69
2018-11-25T00:34:01.378Z,5.57
2018-11-25T00:36:28.799Z,5.50
2018-11-25T00:38:56.225Z,5.54
2018-11-25T00:41:23.647Z,5.66
2018-11-25T00:43:51.078Z,5.68
2018-11-25T00:46:18.506Z,5.55
2018-11-25T00:48:45.944Z,5.54
2018-11-25T00:51:13.363Z,5.50
2018-11-25T00:53:40.802Z,5.38
2018-11-25T00:56:08.214Z,5.29
2018-11-25T00:58:35.652Z,5.27
2018-11-25T01:01:03.075Z,5.26
2018-11-25T01:03:30.501Z,5.13
2018-11-25T01:05:57.950Z,5.25
2018-11-25T01:08:25.395Z,5.22
2018-11-25T01:10:52.819Z,5.18
2018-11-25T01:13:20.372Z,5.17
2018-11-25T01:15:47.797Z,5.34
2018-11-25T01:18:15.250Z,5.37
2018-11-25T01:20:42.685Z,5.40
2018-11-25T01:23:10.117Z,5.39
2018-11-25T01:25:37.549Z,5.39
2018-11-25T01:28:04.973Z,5.48
2018-11-25T01:30:32.486Z,5.48
2018-11-25T01:32:59.920Z,5.54
2018-11-25T01:35:27.364Z,5.45
2018-11-25T01:37:54.798Z,5.51
2018-11-25T01:40:22.218Z,5.56
2018-11-25T01:42:49.649Z,5.47
2018-11-25T01:45:17.112Z,5.45
2018-11-25T01:47:44.610Z,5.45
2018-11-25T01:50:12.032Z,5.45
2018-11-25T01:52:39.447Z,5.50
2018-11-25T01:55:06.871Z,5.50
2018-11-25T01:57:34.302Z,5.48
2018-11-25T02:00:01.738Z,5.46
2018-11-25T02:02:29.155Z,5.29
2018-11-25T02:04:56.570Z,5.27
2018-11-25T02:07:23.982Z,5.18
2018-11-25T02:09:51.403Z,5.11
2018-11-25T02:12:18.825Z,5.17
2018-11-25T02:14:46.247Z,5.12
2018-11-25T02:17:13.678Z,5.06
2018-11-25T02:19:41.097Z,4.96
2018-11-25T02:22:08.526Z,5.13
2018-11-25T02:24:35.938Z,5.13
2018-11-25T02:27:03.357Z,5.09
2018-11-25T02:29:30.781Z,4.92
2018-11-25T02:31:58.207Z,4.94
2018-11-25T02:34:25.636Z,4.89
2018-11-25T02:36:53.062Z,4.84
2018-11-25T02:39:20.485Z,4.83
2018-11-25T02:41:47.917Z,4.80
2018-11-25T02:44:15.333Z,4.82
2018-11-25T02:46:42.760Z,4.83
2018-11-25T02:49:10.178Z,4.89
2018-11-25T02:51:37.598Z,4.94
2018-11-25T02:54:05.024Z,4.92
2018-11-25T02:56:32.448Z,4.92
2018-11-25T02:58:59.868Z,4.88
2018-11-25T03:01:27.292Z,4.88
2018-11-25T03:03:54.712Z,4.84
2018-11-25T03:06:22.129Z,4.90
2018-11-25T03:08:49.564Z,4.77
2018-11-25T03:11:16.992Z,4.79
2018-11-25T03:13:44.422Z,4.75
2018-11-25T03:16:11.837Z,4.75
2018-11-25T03:18:39.267Z,4.65
2018-11-25T03:21:06.794Z,4.64
2018-11-25T03:23:34.211Z,4.59
2018-11-25T03:26:01.645Z,4.70
2018-11-25T03:28:29.081Z,4.75
2018-11-25T03:30:56.511Z,4.79
2018-11-25T03:33:24.039Z,4.66
2018-11-25T03:35:51.445Z,4.60
2018-11-25T03:38:18.924Z,4.60
2018-11-25T03:40:46.354Z,4.55
2018-11-25T03:43:13.774Z,4.58
2018-11-25T03:45:41.188Z,4.69
2018-11-25T03:48:08.601Z,4.63
2018-11-25T03:50:36.038Z,4.72
2018-11-25T03:53:03.454Z,4.79
2018-11-25T03:55:30.887Z,4.70
2018-11-25T03:57:58.314Z,4.61
2018-11-25T04:00:25.735Z,4.64
2018-11-25T04:02:53.163Z,4.55
2018-11-25T04:05:20.591Z,4.52
2018-11-25T04:07:48.015Z,4.53
2018-11-25T04:10:15.435Z,4.58
2018-11-25T04:12:42.863Z,4.57
2018-11-25T04:15:10.289Z,4.59
2018-11-25T04:17:37.715Z,4.53
2018-11-25T04:20:05.142Z,4.38
2018-11-25T04:22:32.573Z,4.49
2018-11-25T04:24:59.987Z,4.56
2018-11-25T04:27:27.414Z,4.50
2018-11-25T04:29:54.838Z,4.53
2018-11-25T04:32:22.260Z,4.48
2018-11-25T04:34:49.686Z,4.52
2018-11-25T04:37:17.099Z,4.63
2018-11-25T04:39:44.527Z,4.65
2018-11-25T04:42:11.952Z,4.62
2018-11-25T04:44:39.370Z,4.54
2018-11-25T04:47:06.799Z,4.55
2018-11-25T04:49:34.228Z,4.53
2018-11-25T04:52:01.644Z,4.58
2018-11-25T04:54:29.070Z,4.54
2018-11-25T04:56:56.499Z,4.49
2018-11-25T04:59:23.919Z,4.46
2018-11-25T05:01:51.342Z,4.55
2018-11-25T05:04:18.763Z,4.43
2018-11-25T05:06:46.188Z,4.48
2018-11-25T05:09:13.601Z,4.49
2018-11-25T05:11:41.041Z,4.58
2018-11-25T05:14:08.461Z,4.68
2018-11-25T05:16:35.892Z,4.78
2018-11-25T05:19:03.314Z,4.85
2018-11-25T05:21:30.752Z,4.94
2018-11-25T05:23:58.161Z,4.94
2018-11-25T05:26:25.596Z,4.88
2018-11-25T05:28:53.009Z,4.90
2018-11-25T05:31:20.447Z,4.91
2018-11-25T05:33:47.862Z,4.89
2018-11-25T05:36:15.286Z,4.89
2018-11-25T05:38:42.706Z,4.89
2018-11-25T05:41:10.136Z,4.88
2018-11-25T05:43:37.549Z,4.92
2018-11-25T05:46:04.979Z,4.84
2018-11-25T05:48:32.396Z,4.90
2018-11-25T05:50:59.826Z,4.92
2018-11-25T05:53:27.257Z,4.88
2018-11-25T05:55:54.677Z,4.97
2018-11-25T05:58:22.114Z,4.94
2018-11-25T06:00:49.547Z,4.98
2018-11-25T06:03:16.963Z,4.94
2018-11-25T06:05:44.382Z,4.96
2018-11-25T06:08:11.799Z,5.00
2018-11-25T06:10:39.226Z,4.99
2018-11-25T06:13:06.655Z,5.01
2018-11-25T06:15:34.087Z,5.09
2018-11-25T06:18:01.501Z,5.02
2018-11-25T06:20:28.934Z,5.10
2018-11-25T06:22:56.347Z,5.13
2018-11-25T06:25:23.779Z,5.07
2018-11-25T06:27:51.205Z,5.12
2018-11-25T06:30:18.640Z,5.08
2018-11-25T06:32:46.065Z,5.09
2018-11-25T06:35:13.523Z,5.15
2018-11-25T06:37:40.958Z,5.14
2018-11-25T06:40:08.371Z,5.18
2018-11-25T06:42:35.818Z,5.20
2018-11-25T06:45:03.226Z,5.24
2018-11-25T06:47:30.649Z,5.25
2018-11-25T06:49:58.071Z,5.21
2018-11-25T06:52:25.505Z,5.14
2018-11-25T06:54:52.927Z,5.11
2018-11-25T06:57:20.355Z,5.12
2018-11-25T06:59:47.766Z,5.21
2018-11-25T07:02:15.183Z,5.26
2018-11-25T07:04:42.605Z,5.23
2018-11-25T07:07:10.023Z,5.18
2018-11-25T07:09:37.438Z,5.27
2018-11-25T07:12:05.266Z,5.22
2018-11-25T07:14:32.696Z,5.25
2018-11-25T07:17:00.115Z,5.30
2018-11-25T07:19:27.550Z,5.32
2018-11-25T07:21:54.980Z,5.32
2018-11-25T07:24:22.389Z,5.34
2018-11-25T07:26:49.815Z,5.39
2018-11-25T07:29:17.286Z,5.27
2018-11-25T07:31:44.706Z,5.31
2018-11-25T07:34:12.138Z,5.37
2018-11-25T07:36:39.576Z,5.41
2018-11-25T07:39:06.998Z,5.42
2018-11-25T07:41:34.431Z,5.52
2018-11-25T07:44:01.855Z,5.54
2018-11-25T07:46:29.304Z,5.60
2018-11-25T07:48:56.727Z,5.48
2018-11-25T07:51:24.163Z,5.54
2018-11-25T07:53:51.592Z,5.53
2018-11-25T07:56:19.019Z,5.54
2018-11-25T07:58:46.434Z,5.48
2018-11-25T08:01:13.859Z,5.62
2018-11-25T08:03:41.289Z,5.63
2018-11-25T08:06:08.711Z,5.65
2018-11-25T08:08:36.138Z,5.72
2018-11-25T08:11:03.575Z,5.81
2018-11-25T08:13:30.993Z,5.92
2018-11-25T08:15:58.409Z,5.89
2018-11-25T08:18:25.842Z,6.06
2018-11-25T08:20:53.519Z,6.06
2018-11-25T08:23:20.979Z,5.99
2018-11-25T08:25:48.745Z,6.11
2018-11-25T08:28:16.176Z,6.23
2018-11-25T08:30:43.591Z,6.23
2018-11-25T08:33:11.014Z,6.30
2018-11-25T08:35:38.431Z,6.25
2018-11-25T08:38:05.867Z,6.37
2018-11-25T08:40:33.276Z,6.39
2018-11-25T08:43:00.694Z,6.42
2018-11-25T08:45:28.119Z,6.51
2018-11-25T08:47:55.632Z,6.52
2018-11-25T08:50:23.040Z,6.57
2018-11-25T08:52:50.496Z,6.68
2018-11-25T08:55:17.913Z,6.85
2018-11-25T08:57:46.280Z,6.91
2018-11-25T09:00:13.701Z,7.03
2018-11-25T09:02:41.122Z,7.37
2018-11-25T09:05:08.535Z,7.48
2018-11-25T09:07:35.970Z,7.62
2018-11-25T09:10:03.388Z,7.66
2018-11-25T09:12:30.834Z,7.67
2018-11-25T09:14:58.250Z,8.00
2018-11-25T09:17:25.754Z,8.14
2018-11-25T09:19:53.220Z,8.15
2018-11-25T09:22:20.650Z,8.25
2018-11-25T09:24:48.091Z,8.05
2018-11-25T09:27:15.518Z,7.98
2018-11-25T09:29:42.955Z,7.86
2018-11-25T09:32:10.376Z,7.78
2018-11-25T09:34:37.857Z,7.60
2018-11-25T09:37:05.282Z,7.60
2018-11-25T09:39:32.710Z,7.61
2018-11-25T09:42:00.124Z,7.54
2018-11-25T09:44:27.554Z,7.45
2018-11-25T09:46:54.986Z,7.44
2018-11-25T09:49:22.513Z,7.59
2018-11-25T09:51:49.962Z,7.58
2018-11-25T09:54:17.375Z,7.52
2018-11-25T09:56:44.814Z,7.55
2018-11-25T09:59:12.339Z,7.63
2018-11-25T10:01:39.795Z,7.59
2018-11-25T10:04:07.246Z,7.51
2018-11-25T10:06:34.654Z,7.63
2018-11-25T10:09:02.088Z,7.52
2018-11-25T10:11:30.137Z,7.61
2018-11-25T10:13:56.973Z,7.54
2018-11-25T10:16:24.393Z,7.54
2018-11-25T10:18:51.822Z,7.65
2018-11-25T10:21:19.337Z,7.68
2018-11-25T10:23:46.738Z,7.71
2018-11-25T10:26:14.174Z,7.77
2018-11-25T10:28:41.691Z,7.82
2018-11-25T10:31:09.106Z,7.84
2018-11-25T10:33:36.533Z,7.85
2018-11-25T10:36:04.625Z,7.84
2018-11-25T10:38:31.478Z,7.93
2018-11-25T10:40:58.900Z,7.90
2018-11-25T10:43:26.330Z,7.88
2018-11-25T10:45:53.808Z,8.08
2018-11-25T10:48:21.314Z,8.00
2018-11-25T10:50:51.266Z,8.03
2018-11-25T10:53:16.162Z,8.07
2018-11-25T10:55:43.578Z,8.15
2018-11-25T10:58:13.028Z,8.14
2018-11-25T11:00:45.930Z,7.98
2018-11-25T11:03:18.842Z,7.92
2018-11-25T11:05:51.695Z,7.87
2018-11-25T11:08:19.131Z,7.87
2018-11-25T11:10:46.553Z,7.77
2018-11-25T11:13:14.086Z,7.86
2018-11-25T11:15:41.539Z,7.83
2018-11-25T11:18:08.986Z,7.82
2018-11-25T11:20:36.399Z,7.91
2018-11-25T11:23:03.818Z,7.94
2018-11-25T11:25:31.268Z,7.93
2018-11-25T11:27:58.726Z,8.04
2018-11-25T11:30:26.181Z,8.07
2018-11-25T11:32:53.615Z,8.12
2018-11-25T11:35:21.098Z,8.10
2018-11-25T11:37:48.536Z,8.10
2018-11-25T11:40:15.951Z,8.17
2018-11-25T11:42:43.574Z,8.06
2018-11-25T11:45:10.996Z,8.02
2018-11-25T11:47:38.485Z,8.04
2018-11-25T11:50:05.910Z,7.97
2018-11-25T11:52:33.407Z,7.85
2018-11-25T11:55:00.853Z,7.81
2018-11-25T11:57:28.321Z,7.77
2018-11-25T11:59:55.783Z,7.74
2018-11-25T12:02:23.202Z,7.68
2018-11-25T12:04:50.693Z,7.57
2018-11-25T12:07:18.114Z,7.61
2018-11-25T12:09:45.611Z,7.52
2018-11-25T12:12:13.023Z,7.60
2018-11-25T12:14:40.443Z,7.64
2018-11-25T12:17:07.890Z,7.57
2018-11-25T12:19:35.334Z,7.66
2018-11-25T12:22:02.769Z,7.71
2018-11-25T12:24:30.228Z,7.70
2018-11-25T12:26:57.833Z,7.71
2018-11-25T12:29:25.271Z,7.65
2018-11-25T12:31:52.706Z,7.67
2018-11-25T12:34:20.187Z,7.70
2018-11-25T12:36:47.614Z,7.77
2018-11-25T12:39:15.094Z,7.91
2018-11-25T12:41:42.512Z,8.00
2018-11-25T12:44:10.017Z,8.18
2018-11-25T12:46:37.474Z,8.19
2018-11-25T12:49:04.938Z,8.24
2018-11-25T12:51:32.386Z,8.17
2018-11-25T12:53:59.827Z,8.24
2018-11-25T12:56:27.730Z,8.24
2018-11-25T12:58:55.169Z,8.21
2018-11-25T13:01:22.734Z,8.19
2018-11-25T13:03:50.178Z,8.20
2018-11-25T13:06:17.652Z,8.23
2018-11-25T13:08:45.091Z,8.26
2018-11-25T13:11:12.535Z,8.16
2018-11-25T13:13:39.954Z,8.07
2018-11-25T13:16:07.368Z,7.94
2018-11-25T13:18:35.813Z,7.99
2018-11-25T13:21:02.260Z,8.01
2018-11-25T13:23:29.690Z,7.94
2018-11-25T13:25:57.118Z,8.00
2018-11-25T13:28:24.538Z,8.07
2018-11-25T13:30:51.972Z,8.15
2018-11-25T13:33:19.389Z,8.19
2018-11-25T13:35:46.831Z,8.15
2018-11-25T13:38:14.305Z,8.13
2018-11-25T13:40:41.726Z,8.11
2018-11-25T13:43:09.317Z,8.07
2018-11-25T13:45:36.766Z,8.10
2018-11-25T13:48:04.218Z,8.19
2018-11-25T13:50:31.647Z,8.24
2018-11-25T13:52:59.139Z,8.20
2018-11-25T13:55:26.567Z,8.21
2018-11-25T13:57:53.988Z,8.14
2018-11-25T14:00:21.414Z,8.07
2018-11-25T14:02:48.836Z,8.06
2018-11-25T14:05:16.267Z,8.00
2018-11-25T14:07:44.437Z,8.02
2018-11-25T14:10:11.960Z,7.90
2018-11-25T14:12:39.395Z,7.87
2018-11-25T14:15:06.813Z,7.79
2018-11-25T14:17:34.242Z,7.79
2018-11-25T14:20:01.662Z,7.72
2018-11-25T14:22:29.456Z,7.69
2018-11-25T14:24:56.875Z,7.63
2018-11-25T14:27:24.362Z,7.66
2018-11-25T14:29:51.819Z,7.66
2018-11-25T14:32:19.239Z,7.59
2018-11-25T14:34:46.707Z,7.59
2018-11-25T14:37:14.134Z,7.60
2018-11-25T14:39:41.563Z,7.57
2018-11-25T14:42:08.994Z,7.55
2018-11-25T14:44:36.406Z,7.58
2018-11-25T14:47:03.834Z,7.46
2018-11-25T14:49:31.376Z,7.46
2018-11-25T14:51:58.815Z,7.36
2018-11-25T14:54:26.303Z,7.30
2018-11-25T14:56:53.731Z,7.27
2018-11-25T14:59:21.163Z,7.29
2018-11-25T15:01:48.596Z,7.24
2018-11-25T15:04:16.115Z,7.18
2018-11-25T15:06:44.121Z,7.10
2018-11-25T15:09:11.541Z,7.09
2018-11-25T15:11:38.972Z,7.03
2018-11-25T15:14:06.399Z,6.93
2018-11-25T15:16:33.837Z,6.89
2018-11-25T15:19:01.274Z,6.77
2018-11-25T15:21:28.794Z,6.74
2018-11-25T15:23:56.290Z,6.70
2018-11-25T15:26:23.747Z,6.73
2018-11-25T15:28:51.175Z,6.73
2018-11-25T15:31:18.593Z,6.62
2018-11-25T15:33:46.012Z,6.67
2018-11-25T15:36:13.441Z,6.70
2018-11-25T15:38:40.872Z,6.68
2018-11-25T15:41:08.398Z,6.64
2018-11-25T15:43:35.810Z,6.57
2018-11-25T15:46:03.242Z,6.58
2018-11-25T15:48:30.660Z,6.48
2018-11-25T15:50:58.113Z,6.49
2018-11-25T15:53:25.574Z,6.50
2018-11-25T15:55:53.006Z,6.49
2018-11-25T15:58:21.148Z,6.41
2018-11-25T16:00:48.682Z,6.31
2018-11-25T16:03:16.117Z,6.40
2018-11-25T16:05:43.592Z,6.38
2018-11-25T16:08:11.085Z,6.31
2018-11-25T16:10:38.517Z,6.31
2018-11-25T16:13:05.915Z,6.29
2018-11-25T16:15:33.349Z,6.27
2018-11-25T16:18:00.785Z,6.37
2018-11-25T16:20:28.205Z,6.26
2018-11-25T16:22:55.625Z,6.21
2018-11-25T16:25:23.058Z,6.18
2018-11-25T16:27:50.477Z,6.18
2018-11-25T16:30:17.899Z,6.03
2018-11-25T16:32:45.782Z,6.24
2018-11-25T16:35:13.223Z,6.24
2018-11-25T16:37:40.743Z,6.21
2018-11-25T16:40:08.171Z,5.91
2018-11-25T16:42:35.686Z,5.75
2018-11-25T16:45:03.110Z,5.78
2018-11-25T16:47:30.579Z,5.51
2018-11-25T16:49:58.036Z,5.41
2018-11-25T16:52:25.586Z,5.29
2018-11-25T16:54:53.024Z,5.13
2018-11-25T16:57:20.456Z,5.06
2018-11-25T16:59:47.885Z,4.97
2018-11-25T17:02:15.298Z,4.94
2018-11-25T17:04:42.779Z,4.95
2018-11-25T17:07:10.233Z,4.95
2018-11-25T17:09:37.654Z,4.84
2018-11-25T17:12:05.073Z,4.77
2018-11-25T17:14:33.823Z,4.72
2018-11-25T17:17:00.024Z,4.54
2018-11-25T17:19:27.514Z,4.37
2018-11-25T17:21:54.951Z,4.35
2018-11-25T17:24:22.380Z,4.44
2018-11-25T17:26:49.798Z,4.35
2018-11-25T17:29:17.359Z,4.18
2018-11-25T17:31:44.782Z,4.11
2018-11-25T17:34:12.274Z,4.04
2018-11-25T17:36:39.723Z,4.06
2018-11-25T17:39:07.271Z,4.30
2018-11-25T17:41:34.729Z,4.49
2018-11-25T17:44:02.159Z,4.45
2018-11-25T17:46:29.659Z,4.24
2018-11-25T17:48:57.077Z,4.07
2018-11-25T17:51:24.570Z,3.89
2018-11-25T17:53:51.990Z,3.91
2018-11-25T17:56:19.462Z,3.87
2018-11-25T17:58:46.895Z,3.80
2018-11-25T18:01:14.390Z,3.71
2018-11-25T18:03:41.854Z,3.69
2018-11-25T18:06:09.277Z,3.69
2018-11-25T18:08:36.738Z,3.71
2018-11-25T18:11:04.161Z,3.35
2018-11-25T18:13:32.049Z,3.37
2018-11-25T18:15:59.499Z,3.33
2018-11-25T18:18:27.014Z,3.43
2018-11-25T18:20:54.467Z,3.47
2018-11-25T18:23:21.906Z,3.62
2018-11-25T18:25:49.334Z,3.46
2018-11-25T18:28:16.767Z,3.65
2018-11-25T18:30:44.176Z,3.71
2018-11-25T18:33:11.658Z,3.80
2018-11-25T18:35:39.084Z,3.81
2018-11-25T18:38:06.510Z,3.81
2018-11-25T18:40:33.931Z,3.90
2018-11-25T18:43:01.370Z,3.83
2018-11-25T18:45:28.834Z,3.80
2018-11-25T18:47:56.243Z,3.94
2018-11-25T18:50:23.665Z,4.01
2018-11-25T18:52:51.088Z,3.94
2018-11-25T18:55:18.509Z,3.97
2018-11-25T18:57:46.035Z,3.98
2018-11-25T19:00:13.457Z,3.98
2018-11-25T19:02:41.426Z,3.99
2018-11-25T19:05:08.846Z,4.01
2018-11-25T19:07:36.296Z,3.98
2018-11-25T19:10:03.723Z,4.03
2018-11-25T19:12:31.153Z,4.12
2018-11-25T19:14:58.569Z,4.16
2018-11-25T19:17:26.047Z,4.13
2018-11-25T19:19:53.555Z,4.13
2018-11-25T19:22:20.996Z,4.13
2018-11-25T19:24:48.415Z,4.17
2018-11-25T19:27:15.850Z,4.23
2018-11-25T19:29:43.283Z,4.22
2018-11-25T19:32:10.710Z,4.27
2018-11-25T19:34:38.135Z,4.26
2018-11-25T19:37:05.567Z,4.23
2018-11-25T19:39:32.991Z,4.11
2018-11-25T19:42:00.426Z,4.28
2018-11-25T19:44:27.850Z,4.53
2018-11-25T19:46:55.291Z,4.28
2018-11-25T19:49:22.717Z,4.20
2018-11-25T19:51:50.142Z,4.09
2018-11-25T19:54:17.583Z,4.17
2018-11-25T19:56:45.012Z,4.28
2018-11-25T19:59:12.452Z,4.29
2018-11-25T20:01:39.875Z,4.28
2018-11-25T20:04:07.311Z,4.35
2018-11-25T20:06:34.734Z,4.38
2018-11-25T20:09:02.168Z,4.42
2018-11-25T20:11:29.666Z,4.45
2018-11-25T20:13:57.095Z,4.49
2018-11-25T20:16:30.079Z,4.49
2018-11-25T20:18:57.513Z,4.44
2018-11-25T20:21:30.349Z,4.45
2018-11-25T20:23:57.769Z,4.43
2018-11-25T20:26:25.207Z,4.54
2018-11-25T20:28:52.650Z,4.49
2018-11-25T20:31:20.091Z,4.43
2018-11-25T20:33:52.173Z,4.43
2018-11-25T20:36:17.220Z,4.43
2018-11-25T20:38:50.090Z,4.44
2018-11-25T20:41:17.520Z,4.41
2018-11-25T20:43:44.938Z,4.48
2018-11-25T20:46:17.777Z,4.36
2018-11-25T20:48:45.211Z,4.33
2018-11-25T20:51:12.622Z,4.25
2018-11-25T20:53:45.342Z,4.39
2018-11-25T20:56:12.861Z,4.37
2018-11-25T20:58:40.320Z,4.33
2018-11-25T21:01:08.163Z,4.28
2018-11-25T21:03:35.599Z,4.28
2018-11-25T21:06:03.019Z,4.29
2018-11-25T21:08:30.452Z,4.39
2018-11-25T21:10:57.924Z,4.36
2018-11-25T21:13:25.383Z,4.33
2018-11-25T21:15:52.817Z,4.42
2018-11-25T21:18:20.300Z,4.31
2018-11-25T21:20:51.346Z,4.28
2018-11-25T21:23:15.215Z,4.36
2018-11-25T21:25:42.641Z,4.35
2018-11-25T21:28:10.088Z,4.40
2018-11-25T21:30:37.511Z,4.37
2018-11-25T21:33:04.943Z,4.40
2018-11-25T21:35:32.368Z,4.18
2018-11-25T21:37:59.794Z,4.18
2018-11-25T21:40:27.224Z,4.13
2018-11-25T21:42:54.699Z,4.14
2018-11-25T22:02:23.082Z,4.27
2018-11-25T22:04:50.509Z,4.31
2018-11-25T22:07:17.994Z,4.35
2018-11-25T22:09:45.435Z,4.38
2018-11-25T22:12:12.898Z,4.51
2018-11-25T22:14:40.399Z,4.64
2018-11-25T22:17:07.819Z,4.67
2018-11-25T22:19:35.265Z,4.66
2018-11-25T22:22:02.721Z,4.54
2018-11-25T22:24:30.154Z,4.67
2018-11-25T22:26:57.576Z,4.59
2018-11-25T22:29:24.998Z,4.67
2018-11-25T22:31:52.417Z,4.60
2018-11-25T22:34:19.854Z,4.62
2018-11-25T22:36:47.276Z,4.61
2018-11-25T22:39:14.718Z,4.66
2018-11-25T22:41:42.179Z,4.54
2018-11-25T22:44:09.620Z,4.43
2018-11-25T22:46:37.774Z,4.44
2018-11-25T22:49:05.206Z,4.41
2018-11-25T22:51:32.630Z,4.35
2018-11-25T22:54:00.056Z,4.36
2018-11-25T22:56:27.495Z,4.30
2018-11-25T22:58:54.918Z,4.43
2018-11-25T23:01:22.357Z,4.40
2018-11-25T23:03:49.786Z,4.48
2018-11-25T23:06:17.478Z,4.33
2018-11-25T23:08:44.914Z,4.35
2018-11-25T23:11:12.338Z,4.39
2018-11-25T23:13:39.848Z,4.42
2018-11-25T23:16:07.266Z,4.53
2018-11-25T23:18:34.698Z,4.47
2018-11-25T23:21:02.135Z,4.42
2018-11-25T23:23:29.559Z,4.50
2018-11-25T23:25:56.993Z,4.51
2018-11-25T23:28:24.499Z,4.64
2018-11-25T23:30:51.945Z,4.50
2018-11-25T23:33:19.504Z,4.46
2018-11-25T23:35:46.929Z,4.36
2018-11-25T23:38:14.417Z,4.30
2018-11-25T23:40:41.855Z,4.28
2018-11-25T23:43:09.327Z,4.36
2018-11-25T23:45:36.765Z,4.41
2018-11-25T23:48:04.280Z,4.49
2018-11-25T23:50:31.711Z,4.44
2018-11-25T23:52:59.196Z,4.47
2018-11-25T23:55:26.636Z,4.46
2018-11-25T23:57:54.067Z,4.43
